Weather at Milan Bergamo Airport

Public forecast

Using degrees Celsius for public forecast. Weather courtesy of forecast.io.

Current aviation weather report (METAR) for Milan Bergamo Airport

Retrieved 2021/01/17 01:20 UTC (36 minutes ago):

LIME 170120Z VRB01KT CAVOK M01/M04 Q1016 NOSIG

Aviation forecast (TAF) for Milan Bergamo Airport

Retrieved 2021-01-17 00:00 UTC (2 hours ago):

TAF LIME 162300Z 1700/1724 VRB05KT CAVOK